createdAt,value
2023-01-02T00:03:09.380Z,10.43
2023-01-02T00:08:17.906Z,10.30
2023-01-02T00:13:25.411Z,10.18
2023-01-02T00:18:32.580Z,10.04
2023-01-02T00:23:40.339Z,9.94
2023-01-02T00:28:47.541Z,9.82
2023-01-02T00:33:54.970Z,9.73
2023-01-02T00:39:02.430Z,9.65
2023-01-02T00:44:09.763Z,9.63
2023-01-02T00:49:17.194Z,9.62
2023-01-02T00:54:24.476Z,9.63
2023-01-02T00:59:31.768Z,9.61
2023-01-02T01:04:40.074Z,9.72
2023-01-02T01:09:47.315Z,9.80
2023-01-02T01:14:54.805Z,9.88
2023-01-02T01:20:02.028Z,9.96
2023-01-02T01:25:10.644Z,10.04
2023-01-02T01:30:18.093Z,10.10
2023-01-02T01:35:26.002Z,10.18
2023-01-02T01:40:41.378Z,10.23
2023-01-02T01:45:49.061Z,10.32
2023-01-02T01:50:56.955Z,10.39
2023-01-02T01:56:08.209Z,10.44
2023-01-02T02:01:17.819Z,10.50
2023-01-02T02:06:25.461Z,10.54
2023-01-02T02:11:33.877Z,10.57
2023-01-02T02:16:51.676Z,10.56
2023-01-02T02:22:23.359Z,10.56
2023-01-02T02:27:50.789Z,10.60
2023-01-02T02:33:19.766Z,10.59
2023-01-02T02:38:48.500Z,10.60
2023-01-02T02:44:04.621Z,10.59
2023-01-02T02:49:17.342Z,10.57
2023-01-02T02:54:29.407Z,10.55
2023-01-02T02:59:38.641Z,10.54
2023-01-02T03:04:48.670Z,10.55
2023-01-02T03:10:10.440Z,10.56
2023-01-02T03:15:26.287Z,10.58
2023-01-02T03:20:38.933Z,10.60
2023-01-02T03:25:48.378Z,10.60
2023-01-02T03:30:59.594Z,10.61
2023-01-02T03:36:11.057Z,10.61
2023-01-02T03:41:26.478Z,10.62
2023-01-02T03:46:39.439Z,10.63
2023-01-02T03:51:47.111Z,10.61
2023-01-02T03:57:00.840Z,10.58
2023-01-02T04:02:14.011Z,10.57
2023-01-02T04:07:27.023Z,10.57
2023-01-02T04:12:38.984Z,10.52
2023-01-02T04:17:52.380Z,10.52
2023-01-02T04:23:04.903Z,10.48
2023-01-02T04:28:18.458Z,10.49
2023-01-02T04:33:27.551Z,10.46
2023-01-02T04:38:34.980Z,10.43
2023-01-02T04:43:42.324Z,10.42
2023-01-02T04:48:49.722Z,10.42
2023-01-02T04:53:57.415Z,10.39
2023-01-02T04:59:05.415Z,10.39
2023-01-02T05:04:12.839Z,10.36
2023-01-02T05:09:20.246Z,10.30
2023-01-02T05:14:27.865Z,10.29
2023-01-02T05:19:35.805Z,10.26
2023-01-02T05:24:43.768Z,10.26
2023-01-02T05:29:51.163Z,10.26
2023-01-02T05:34:58.895Z,10.23
2023-01-02T05:40:06.779Z,10.24
2023-01-02T05:45:14.591Z,10.23
2023-01-02T05:50:22.224Z,10.24
2023-01-02T05:55:29.636Z,10.23
2023-01-02T06:00:36.941Z,10.23
2023-01-02T06:05:44.442Z,10.24
2023-01-02T06:10:55.100Z,10.26
2023-01-02T06:16:04.003Z,10.25
2023-01-02T06:21:13.637Z,10.28
2023-01-02T06:26:22.242Z,10.28
2023-01-02T06:31:30.982Z,10.29
2023-01-02T06:36:38.611Z,10.30
2023-01-02T06:41:46.073Z,10.30
2023-01-02T06:46:53.434Z,10.29
2023-01-02T06:52:01.014Z,10.28
2023-01-02T06:57:08.463Z,10.30
2023-01-02T07:02:16.977Z,10.29
2023-01-02T07:07:24.535Z,10.27
2023-01-02T07:12:31.903Z,10.28
2023-01-02T07:17:39.415Z,10.29
2023-01-02T07:22:50.670Z,10.29
2023-01-02T07:28:00.843Z,10.26
2023-01-02T07:33:08.096Z,10.27
2023-01-02T07:38:15.770Z,10.27
2023-01-02T07:43:23.221Z,10.20
2023-01-02T07:48:32.674Z,10.26
2023-01-02T07:53:40.016Z,10.26
2023-01-02T07:58:47.632Z,10.29
2023-01-02T08:03:55.083Z,10.28
2023-01-02T08:09:02.466Z,10.32
2023-01-02T08:14:10.113Z,10.34
2023-01-02T08:19:17.310Z,10.32
2023-01-02T08:24:24.593Z,10.41
2023-01-02T08:29:31.969Z,10.45
2023-01-02T08:34:39.658Z,10.48
2023-01-02T08:39:47.261Z,10.52
2023-01-02T08:44:54.798Z,10.56
2023-01-02T08:50:02.014Z,10.59
2023-01-02T08:55:11.095Z,10.63
2023-01-02T09:00:20.059Z,10.68
2023-01-02T09:05:29.499Z,10.72
2023-01-02T09:10:36.743Z,10.72
2023-01-02T09:15:47.926Z,10.76
2023-01-02T09:20:56.056Z,10.79
2023-01-02T09:26:05.827Z,10.80
2023-01-02T09:31:17.639Z,10.83
2023-01-02T09:36:25.750Z,10.86
2023-01-02T09:41:37.955Z,10.89
2023-01-02T09:46:51.413Z,10.88
2023-01-02T09:51:59.562Z,10.92
2023-01-02T09:57:38.398Z,10.93
2023-01-02T10:03:08.047Z,10.93
2023-01-02T10:08:31.713Z,10.96
2023-01-02T10:14:17.214Z,10.99
2023-01-02T10:19:18.294Z,11.03
2023-01-02T10:24:35.827Z,11.06
2023-01-02T10:29:49.477Z,11.10
2023-01-02T10:35:05.981Z,11.13
2023-01-02T10:40:14.502Z,11.16
2023-01-02T10:45:22.242Z,11.18
2023-01-02T10:50:34.326Z,11.21
2023-01-02T10:55:42.183Z,11.25
2023-01-02T11:00:50.816Z,11.27
2023-01-02T11:06:23.167Z,11.29
2023-01-02T11:11:28.606Z,11.31
2023-01-02T11:16:39.334Z,11.35
2023-01-02T11:21:47.345Z,11.38
2023-01-02T11:26:55.263Z,11.39
2023-01-02T11:32:04.844Z,11.43
2023-01-02T11:37:19.302Z,11.46
2023-01-02T11:42:51.392Z,11.50
2023-01-02T11:48:01.509Z,11.55
2023-01-02T11:53:17.938Z,11.59
2023-01-02T11:58:32.326Z,11.65
2023-01-02T12:03:41.606Z,11.68
2023-01-02T12:09:01.794Z,11.73
2023-01-02T12:14:16.225Z,11.75
2023-01-02T12:19:47.325Z,11.80
2023-01-02T12:25:23.586Z,11.83
2023-01-02T12:30:35.281Z,11.85
2023-01-02T12:36:00.341Z,11.91
2023-01-02T12:41:24.623Z,11.94
2023-01-02T12:46:49.154Z,11.93
2023-01-02T12:52:05.624Z,11.96
2023-01-02T12:57:22.562Z,11.99
2023-01-02T13:02:49.640Z,11.98
2023-01-02T13:08:02.009Z,12.01
2023-01-02T13:13:11.282Z,12.02
2023-01-02T13:18:24.753Z,12.03
2023-01-02T13:23:40.180Z,12.03
2023-01-02T13:28:57.447Z,12.04
2023-01-02T13:34:11.816Z,12.05
2023-01-02T13:39:23.827Z,12.06
2023-01-02T13:44:37.564Z,12.07
2023-01-02T13:49:45.590Z,12.07
2023-01-02T14:00:55.340Z,12.12
2023-01-02T14:06:06.014Z,12.04
2023-01-02T14:11:21.649Z,12.00
2023-01-02T14:17:04.332Z,11.89
2023-01-02T14:22:15.895Z,11.83
2023-01-02T14:27:28.236Z,11.76
2023-01-02T14:32:41.428Z,11.72
2023-01-02T14:37:50.875Z,11.68
2023-01-02T14:43:19.906Z,11.63
2023-01-02T14:48:33.937Z,11.60
2023-01-02T14:53:51.691Z,11.57
2023-01-02T14:59:01.204Z,11.56
2023-01-02T15:04:22.585Z,11.55
2023-01-02T15:09:35.871Z,11.55
2023-01-02T15:14:45.151Z,11.54
2023-01-02T15:19:54.432Z,11.56
2023-01-02T15:25:02.364Z,11.57
2023-01-02T15:30:29.696Z,11.57
2023-01-02T15:35:39.162Z,11.56
2023-01-02T15:40:47.196Z,11.55
2023-01-02T15:45:55.875Z,11.52
2023-01-02T15:51:03.857Z,11.51
2023-01-02T15:56:32.841Z,11.50
2023-01-02T16:01:48.370Z,11.49
2023-01-02T16:06:57.427Z,11.50
2023-01-02T16:12:06.716Z,11.51
2023-01-02T16:17:23.752Z,11.51
2023-01-02T16:22:38.177Z,11.51
2023-01-02T16:27:54.574Z,11.52
2023-01-02T16:33:04.978Z,11.52
2023-01-02T16:38:25.043Z,11.49
2023-01-02T16:43:39.570Z,11.49
2023-01-02T16:48:50.773Z,11.50
2023-01-02T16:53:59.288Z,11.51
2023-01-02T16:59:07.023Z,11.53
2023-01-02T17:04:17.286Z,11.54
2023-01-02T17:09:25.560Z,11.56
2023-01-02T17:14:34.956Z,11.59
2023-01-02T17:19:43.723Z,11.61
2023-01-02T17:24:52.335Z,11.63
2023-01-02T17:30:00.540Z,11.67
2023-01-02T17:35:09.810Z,11.66
2023-01-02T17:40:17.945Z,11.70
2023-01-02T17:45:27.046Z,11.73
2023-01-02T17:50:35.677Z,11.77
2023-01-02T17:55:44.139Z,11.79
2023-01-02T18:00:53.388Z,11.82
2023-01-02T18:06:05.455Z,11.85
2023-01-02T18:11:13.443Z,11.87
2023-01-02T18:16:22.899Z,11.90
2023-01-02T18:21:35.052Z,11.89
2023-01-02T18:26:44.295Z,11.91
2023-01-02T18:31:52.379Z,11.93
2023-01-02T18:37:02.251Z,11.94
2023-01-02T18:42:15.038Z,11.97
2023-01-02T18:47:28.591Z,11.99
2023-01-02T18:52:37.926Z,12.01
2023-01-02T18:57:49.103Z,12.03
2023-01-02T19:03:02.183Z,12.02
2023-01-02T19:08:20.508Z,11.99
2023-01-02T19:13:29.670Z,11.97
2023-01-02T19:18:42.154Z,11.97
2023-01-02T19:23:54.466Z,11.96
2023-01-02T19:29:13.785Z,11.97
2023-01-02T19:34:44.450Z,11.97
2023-01-02T19:39:54.982Z,11.95
2023-01-02T19:45:04.223Z,11.94
2023-01-02T19:50:14.989Z,11.95
2023-01-02T19:55:22.770Z,11.93
2023-01-02T20:00:30.444Z,11.93
2023-01-02T20:05:38.462Z,11.93
2023-01-02T20:10:46.109Z,11.92
2023-01-02T20:15:54.121Z,11.90
2023-01-02T20:21:01.585Z,11.91
2023-01-02T20:26:09.720Z,11.88
2023-01-02T20:31:17.478Z,11.89
2023-01-02T20:36:25.063Z,11.88
2023-01-02T20:41:32.583Z,11.89
2023-01-02T20:46:41.431Z,11.89
2023-01-02T20:51:49.057Z,11.87
2023-01-02T20:56:56.818Z,11.88
2023-01-02T21:02:04.991Z,11.88
2023-01-02T21:07:12.850Z,11.86
2023-01-02T21:12:38.284Z,11.83
2023-01-02T21:17:46.220Z,11.82
2023-01-02T21:22:53.953Z,11.79
2023-01-02T21:28:01.498Z,11.78
2023-01-02T21:33:09.391Z,11.76
2023-01-02T21:38:19.432Z,11.74
2023-01-02T21:43:26.910Z,11.74
2023-01-02T21:48:35.961Z,11.73
2023-01-02T21:53:43.310Z,11.73
2023-01-02T21:58:50.909Z,11.71
2023-01-02T22:03:58.500Z,11.70
2023-01-02T22:09:06.583Z,11.71
2023-01-02T22:14:14.038Z,11.71
2023-01-02T22:19:22.453Z,11.71
2023-01-02T22:24:30.893Z,11.67
2023-01-02T22:30:18.606Z,11.65
2023-01-02T22:35:08.056Z,11.61
2023-01-02T22:40:16.445Z,11.57
2023-01-02T22:45:27.924Z,11.56
2023-01-02T22:50:42.127Z,11.54
2023-01-02T22:55:50.598Z,11.54
2023-01-02T23:01:02.541Z,11.54
2023-01-02T23:06:08.559Z,11.53
2023-01-02T23:11:16.143Z,11.52
2023-01-02T23:16:41.199Z,11.51
2023-01-02T23:21:50.485Z,11.52
2023-01-02T23:27:00.134Z,11.53
2023-01-02T23:32:10.846Z,11.54
2023-01-02T23:37:18.689Z,11.56
2023-01-02T23:42:26.339Z,11.58
2023-01-02T23:47:34.166Z,11.59
2023-01-02T23:52:41.795Z,11.58
2023-01-02T23:57:49.261Z,11.59
